createdAt,value
2017-09-25T00:00:45.540Z,99.99
2017-09-25T00:01:45.540Z,99.48
2017-09-25T00:02:45.543Z,99.96
2017-09-25T00:03:45.542Z,99.99
2017-09-25T00:04:45.544Z,99.99
2017-09-25T00:05:45.544Z,99.99
2017-09-25T00:06:45.542Z,99.99
2017-09-25T00:07:45.545Z,99.96
2017-09-25T00:08:45.545Z,99.99
2017-09-25T00:09:45.545Z,99.96
2017-09-25T00:10:45.548Z,99.99
2017-09-25T00:11:45.547Z,99.76
2017-09-25T00:12:45.546Z,99.99
2017-09-25T00:13:45.546Z,99.99
2017-09-25T00:14:45.547Z,99.99
2017-09-25T00:15:45.548Z,99.99
2017-09-25T00:16:45.548Z,99.99
2017-09-25T00:17:45.548Z,99.99
2017-09-25T00:18:45.549Z,99.99
2017-09-25T00:19:45.550Z,99.99
2017-09-25T00:20:45.549Z,99.86
2017-09-25T00:21:45.549Z,99.86
2017-09-25T00:22:45.550Z,99.99
2017-09-25T00:23:45.551Z,99.99
2017-09-25T00:24:45.550Z,99.99
2017-09-25T00:25:45.553Z,99.96
2017-09-25T00:26:45.557Z,99.99
2017-09-25T00:27:45.552Z,99.99
2017-09-25T00:28:45.552Z,99.99
2017-09-25T00:29:45.553Z,99.99
2017-09-25T00:30:45.552Z,99.99
2017-09-25T00:31:45.553Z,99.99
2017-09-25T00:32:45.554Z,99.86
2017-09-25T00:33:45.554Z,99.99
2017-09-25T00:34:45.559Z,99.99
2017-09-25T00:35:45.556Z,99.99
2017-09-25T00:36:45.555Z,99.99
2017-09-25T00:37:45.556Z,99.99
2017-09-25T00:38:45.557Z,99.48
2017-09-25T00:39:45.557Z,99.19
2017-09-25T00:40:45.557Z,99.96
2017-09-25T00:41:45.558Z,99.57
2017-09-25T00:42:45.558Z,99.99
2017-09-25T00:43:45.559Z,99.48
2017-09-25T00:44:45.560Z,99.86
2017-09-25T00:45:45.560Z,99.19
2017-09-25T00:46:45.560Z,99.19
2017-09-25T00:47:45.562Z,99.00
2017-09-25T00:48:45.560Z,99.67
2017-09-25T00:49:45.562Z,99.29
2017-09-25T00:50:45.563Z,99.99
2017-09-25T00:51:45.563Z,99.99
2017-09-25T00:52:45.564Z,99.99
2017-09-25T00:53:45.564Z,99.96
2017-09-25T00:54:45.569Z,99.96
2017-09-25T00:55:45.564Z,99.99
2017-09-25T00:56:45.566Z,99.99
2017-09-25T00:57:45.565Z,99.38
2017-09-25T00:58:45.566Z,99.10
2017-09-25T00:59:45.567Z,99.38
2017-09-25T01:00:45.567Z,99.29
2017-09-25T01:01:45.568Z,99.57
2017-09-25T01:02:45.568Z,99.38
2017-09-25T01:03:45.569Z,99.00
2017-09-25T01:04:45.568Z,99.38
2017-09-25T01:05:45.572Z,99.33
2017-09-25T01:06:45.571Z,99.33
2017-09-25T01:07:45.570Z,99.04
2017-09-25T01:08:45.569Z,99.24
2017-09-25T01:09:45.570Z,99.24
2017-09-25T01:10:45.570Z,99.33
2017-09-25T01:11:45.572Z,99.62
2017-09-25T01:12:45.570Z,99.99
2017-09-25T01:13:45.571Z,99.90
2017-09-25T01:14:45.572Z,99.81
2017-09-25T01:15:45.572Z,99.99
2017-09-25T01:16:45.572Z,99.99
2017-09-25T01:17:45.572Z,99.99
2017-09-25T01:18:45.572Z,99.99
2017-09-25T01:19:45.573Z,99.99
2017-09-25T01:20:45.572Z,99.99
2017-09-25T01:21:45.573Z,99.99
2017-09-25T01:22:45.574Z,99.99
2017-09-25T01:23:45.574Z,99.99
2017-09-25T01:24:45.574Z,99.99
2017-09-25T01:25:45.578Z,99.99
2017-09-25T01:26:45.576Z,99.99
2017-09-25T01:27:45.575Z,99.99
2017-09-25T01:28:45.578Z,99.99
2017-09-25T01:29:45.576Z,99.99
2017-09-25T01:30:45.575Z,99.99
2017-09-25T01:31:45.575Z,99.99
2017-09-25T01:32:45.574Z,99.99
2017-09-25T01:33:45.574Z,99.99
2017-09-25T01:34:45.576Z,99.99
2017-09-25T01:35:45.575Z,99.99
2017-09-25T01:36:45.574Z,99.99
2017-09-25T01:37:45.574Z,99.99
2017-09-25T01:38:45.576Z,99.99
2017-09-25T01:39:45.575Z,99.99
2017-09-25T01:40:45.574Z,99.99
2017-09-25T01:41:45.576Z,99.99
2017-09-25T01:42:45.574Z,99.99
2017-09-25T01:43:45.574Z,99.99
2017-09-25T01:44:45.574Z,99.99
2017-09-25T01:45:45.574Z,99.99
2017-09-25T01:46:45.575Z,99.99
2017-09-25T01:47:45.574Z,99.99
2017-09-25T01:48:45.573Z,99.99
2017-09-25T01:49:45.572Z,99.99
2017-09-25T01:50:45.572Z,99.99
2017-09-25T01:51:45.574Z,99.99
2017-09-25T01:52:45.572Z,99.99
2017-09-25T01:53:45.572Z,99.99
2017-09-25T01:54:45.572Z,99.99
2017-09-25T01:55:45.577Z,99.99
2017-09-25T01:56:45.571Z,99.99
2017-09-25T01:57:45.571Z,99.99
2017-09-25T01:58:45.571Z,99.99
2017-09-25T01:59:45.573Z,99.99
2017-09-25T02:00:45.569Z,99.99
2017-09-25T02:01:45.568Z,99.99
2017-09-25T02:02:45.567Z,99.99
2017-09-25T02:03:45.568Z,99.99
2017-09-25T02:04:45.567Z,99.99
2017-09-25T02:05:45.568Z,99.99
2017-09-25T02:06:45.566Z,99.99
2017-09-25T02:07:45.566Z,99.99
2017-09-25T02:08:45.566Z,99.99
2017-09-25T02:09:45.566Z,99.99
2017-09-25T02:10:45.564Z,99.99
2017-09-25T02:11:45.566Z,99.99
2017-09-25T02:12:45.563Z,99.99
2017-09-25T02:13:45.563Z,99.99
2017-09-25T02:14:45.562Z,99.99
2017-09-25T02:15:45.561Z,99.99
2017-09-25T02:16:45.562Z,99.99
2017-09-25T02:17:45.561Z,99.99
2017-09-25T02:18:45.560Z,99.99
2017-09-25T02:19:45.561Z,99.99
2017-09-25T02:20:45.557Z,99.99
2017-09-25T02:21:45.559Z,99.99
2017-09-25T02:22:45.559Z,99.99
2017-09-25T02:23:45.559Z,99.99
2017-09-25T02:24:45.558Z,99.99
2017-09-25T02:25:45.557Z,99.99
2017-09-25T02:26:45.559Z,99.99
2017-09-25T02:27:45.558Z,99.99
2017-09-25T02:28:45.555Z,99.99
2017-09-25T02:29:45.557Z,99.99
2017-09-25T02:30:45.557Z,99.99
2017-09-25T02:31:45.555Z,99.99
2017-09-25T02:32:45.554Z,99.99
2017-09-25T02:33:45.555Z,99.99
2017-09-25T02:34:45.554Z,99.99
2017-09-25T02:35:45.554Z,99.99
2017-09-25T02:36:45.554Z,99.99
2017-09-25T02:37:45.552Z,99.99
2017-09-25T02:38:45.552Z,99.99
2017-09-25T02:39:45.552Z,99.99
2017-09-25T02:40:45.550Z,99.99
2017-09-25T02:41:45.551Z,99.99
2017-09-25T02:42:45.550Z,99.99
2017-09-25T02:43:45.550Z,99.99
2017-09-25T02:44:45.549Z,99.99
2017-09-25T02:45:45.547Z,99.99
2017-09-25T02:46:45.549Z,99.99
2017-09-25T02:47:45.547Z,99.99
2017-09-25T02:48:45.545Z,99.99
2017-09-25T02:49:45.546Z,99.99
2017-09-25T02:50:45.546Z,99.99
2017-09-25T02:51:45.546Z,99.99
2017-09-25T02:52:45.544Z,99.99
2017-09-25T02:53:45.544Z,99.99
2017-09-25T02:54:45.544Z,99.99
2017-09-25T02:55:45.543Z,99.99
2017-09-25T02:56:45.579Z,99.99
2017-09-25T02:57:45.542Z,99.99
2017-09-25T02:58:45.540Z,99.99
2017-09-25T02:59:45.543Z,99.99
2017-09-25T03:00:45.539Z,99.99
2017-09-25T03:01:45.539Z,99.99
2017-09-25T03:02:45.543Z,99.99
2017-09-25T03:03:45.538Z,99.99
2017-09-25T03:04:45.538Z,99.99
2017-09-25T03:05:45.539Z,99.99
2017-09-25T03:06:45.537Z,99.99
2017-09-25T03:07:45.537Z,99.99
2017-09-25T03:08:45.536Z,99.99
2017-09-25T03:09:45.534Z,99.99
2017-09-25T03:10:45.535Z,99.99
2017-09-25T03:11:45.535Z,99.99
2017-09-25T03:12:45.532Z,99.99
2017-09-25T03:13:45.533Z,99.99
2017-09-25T03:14:45.533Z,99.99
2017-09-25T03:15:45.534Z,99.99
2017-09-25T03:16:45.531Z,99.99
2017-09-25T03:17:45.530Z,99.99
2017-09-25T03:18:45.534Z,99.99
2017-09-25T03:19:45.530Z,99.99
2017-09-25T03:20:45.530Z,99.99
2017-09-25T03:21:45.530Z,99.99
2017-09-25T03:22:45.529Z,99.99
2017-09-25T03:23:45.528Z,99.99
2017-09-25T03:24:45.528Z,99.99
2017-09-25T03:25:45.528Z,99.99
2017-09-25T03:26:45.528Z,99.99
2017-09-25T03:27:45.528Z,99.99
2017-09-25T03:28:45.526Z,99.99
2017-09-25T03:29:45.527Z,99.99
2017-09-25T03:30:45.528Z,99.99
2017-09-25T03:31:45.526Z,99.99
2017-09-25T03:32:45.526Z,99.99
2017-09-25T03:33:45.528Z,99.99
2017-09-25T03:34:45.526Z,99.99
2017-09-25T03:35:45.525Z,99.99
2017-09-25T03:36:45.524Z,99.99
2017-09-25T03:37:45.525Z,99.99
2017-09-25T03:38:45.524Z,99.99
2017-09-25T03:39:45.524Z,99.99
2017-09-25T03:40:45.523Z,99.99
2017-09-25T03:41:45.523Z,99.99
2017-09-25T03:42:45.525Z,99.99
2017-09-25T03:43:45.524Z,99.99
2017-09-25T03:44:45.521Z,99.99
2017-09-25T03:45:45.521Z,99.99
2017-09-25T03:46:45.521Z,99.99
2017-09-25T03:47:45.521Z,99.99
2017-09-25T03:48:45.521Z,99.99
2017-09-25T03:49:45.521Z,99.99
2017-09-25T03:50:45.521Z,99.99
2017-09-25T03:51:45.520Z,99.99
2017-09-25T03:52:45.519Z,99.99
2017-09-25T03:53:45.519Z,99.99
2017-09-25T03:54:45.519Z,99.99
2017-09-25T03:55:45.519Z,99.99
2017-09-25T03:56:45.518Z,99.99
2017-09-25T03:57:45.518Z,99.99
2017-09-25T03:58:45.520Z,99.99
2017-09-25T03:59:45.518Z,99.99
2017-09-25T04:00:45.518Z,99.99
2017-09-25T04:01:45.519Z,99.99
2017-09-25T04:02:45.518Z,99.99
2017-09-25T04:03:45.518Z,99.99
2017-09-25T04:04:45.517Z,99.99
2017-09-25T04:05:45.516Z,99.99
2017-09-25T04:06:45.517Z,99.99
2017-09-25T04:07:45.519Z,99.99
2017-09-25T04:08:45.517Z,99.99
2017-09-25T04:09:45.518Z,99.99
2017-09-25T04:10:45.516Z,99.99
2017-09-25T04:11:45.517Z,99.99
2017-09-25T04:12:45.550Z,99.99
2017-09-25T04:13:45.517Z,99.99
2017-09-25T04:14:45.517Z,99.99
2017-09-25T04:15:45.515Z,99.99
2017-09-25T04:16:45.520Z,99.99
2017-09-25T04:17:45.515Z,99.99
2017-09-25T04:18:45.515Z,99.99
2017-09-25T04:19:45.515Z,99.99
2017-09-25T04:20:45.521Z,99.99
2017-09-25T04:21:45.515Z,99.99
2017-09-25T04:22:45.517Z,99.99
2017-09-25T04:23:45.515Z,99.99
2017-09-25T04:24:45.515Z,99.99
2017-09-25T04:25:45.514Z,99.99
2017-09-25T04:26:45.514Z,99.99
2017-09-25T04:27:45.515Z,99.99
2017-09-25T04:28:45.512Z,99.99
2017-09-25T04:29:45.515Z,99.99
2017-09-25T04:30:45.514Z,99.99
2017-09-25T04:31:45.513Z,99.99
2017-09-25T04:32:45.518Z,99.99
2017-09-25T04:33:45.514Z,99.99
2017-09-25T04:34:45.514Z,99.99
2017-09-25T04:35:45.514Z,99.99
2017-09-25T04:36:45.513Z,99.99
2017-09-25T04:37:45.515Z,99.99
2017-09-25T04:38:45.515Z,99.99
2017-09-25T04:39:45.513Z,99.99
2017-09-25T04:40:45.513Z,99.99
2017-09-25T04:41:45.513Z,99.99
2017-09-25T04:42:45.515Z,99.99
2017-09-25T04:43:45.514Z,99.99
2017-09-25T04:44:45.513Z,99.99
2017-09-25T04:45:45.515Z,99.99
2017-09-25T04:46:45.521Z,99.99
2017-09-25T04:47:45.515Z,99.99
2017-09-25T04:48:45.521Z,99.99
2017-09-25T04:49:45.514Z,99.99
2017-09-25T04:50:45.515Z,99.99
2017-09-25T04:51:45.515Z,99.99
2017-09-25T04:52:45.513Z,99.99
2017-09-25T04:53:45.516Z,99.99
2017-09-25T04:54:45.514Z,99.99
2017-09-25T04:55:45.517Z,99.99
2017-09-25T04:56:45.515Z,99.99
2017-09-25T04:57:45.516Z,99.99
2017-09-25T04:58:45.516Z,99.99
2017-09-25T04:59:45.516Z,99.99
2017-09-25T05:00:45.516Z,99.99
2017-09-25T05:01:45.517Z,99.99
2017-09-25T05:02:45.518Z,99.99
2017-09-25T05:03:45.516Z,99.99
2017-09-25T05:04:45.516Z,99.99
2017-09-25T05:05:45.517Z,99.99
2017-09-25T05:06:45.518Z,99.99
2017-09-25T05:07:45.520Z,99.99
2017-09-25T05:08:45.518Z,99.99
2017-09-25T05:09:45.517Z,99.99
2017-09-25T05:10:45.518Z,99.99
2017-09-25T05:11:45.517Z,99.99
2017-09-25T05:12:45.522Z,99.99
2017-09-25T05:13:45.520Z,99.99
2017-09-25T05:14:45.518Z,99.99
2017-09-25T05:15:45.520Z,99.99
2017-09-25T05:16:45.518Z,99.99
2017-09-25T05:17:45.520Z,99.99
2017-09-25T05:18:45.520Z,99.99
2017-09-25T05:19:45.520Z,99.99
2017-09-25T05:20:45.518Z,99.99
2017-09-25T05:21:45.518Z,99.99
2017-09-25T05:22:45.519Z,99.99
2017-09-25T05:23:45.519Z,99.99
2017-09-25T05:24:45.518Z,99.99
2017-09-25T05:25:45.519Z,99.99
2017-09-25T05:26:45.519Z,99.99
2017-09-25T05:27:45.521Z,99.99
2017-09-25T05:28:45.520Z,99.99
2017-09-25T05:29:45.518Z,99.99
2017-09-25T05:30:45.519Z,99.99
2017-09-25T05:31:45.519Z,99.99
2017-09-25T05:32:45.519Z,99.99
2017-09-25T05:33:45.519Z,99.99
2017-09-25T05:34:45.519Z,99.99
2017-09-25T05:35:45.519Z,99.99
2017-09-25T05:36:45.553Z,99.99
2017-09-25T05:37:45.523Z,99.99
2017-09-25T05:38:45.518Z,99.99
2017-09-25T05:39:45.517Z,99.99
2017-09-25T05:40:45.519Z,99.99
2017-09-25T05:41:45.518Z,99.99
2017-09-25T05:42:45.519Z,99.99
2017-09-25T05:43:45.518Z,99.99
2017-09-25T05:44:45.517Z,99.99
2017-09-25T05:45:45.519Z,99.99
2017-09-25T05:46:45.516Z,99.99
2017-09-25T05:47:45.517Z,99.99
2017-09-25T05:48:45.517Z,99.99
2017-09-25T05:49:45.517Z,99.99
2017-09-25T05:50:45.518Z,99.99
2017-09-25T05:51:45.518Z,99.99
2017-09-25T05:52:45.517Z,99.99
2017-09-25T05:53:45.517Z,99.99
2017-09-25T05:54:45.519Z,99.99
2017-09-25T05:55:45.520Z,99.99
2017-09-25T05:56:45.517Z,99.99
2017-09-25T05:57:45.517Z,99.99
2017-09-25T05:58:45.519Z,99.99
2017-09-25T05:59:45.517Z,99.99
2017-09-25T06:00:45.516Z,99.99
2017-09-25T06:01:45.518Z,99.99
2017-09-25T06:02:45.517Z,99.99
2017-09-25T06:03:45.520Z,99.99
2017-09-25T06:04:45.523Z,99.99
2017-09-25T06:05:45.518Z,99.99
2017-09-25T06:06:45.518Z,99.99
2017-09-25T06:07:45.518Z,99.99
2017-09-25T06:08:45.518Z,99.99
2017-09-25T06:09:45.519Z,99.99
2017-09-25T06:10:45.518Z,99.99
2017-09-25T06:11:45.520Z,99.99
2017-09-25T06:12:45.518Z,99.99
2017-09-25T06:13:45.520Z,99.99
2017-09-25T06:14:45.518Z,99.99
2017-09-25T06:15:45.520Z,99.99
2017-09-25T06:16:45.551Z,99.99
2017-09-25T06:17:45.519Z,99.99
2017-09-25T06:18:45.520Z,99.99
2017-09-25T06:19:45.520Z,99.99
2017-09-25T06:20:45.522Z,99.99
2017-09-25T06:21:45.522Z,99.99
2017-09-25T06:22:45.521Z,99.99
2017-09-25T06:23:45.521Z,99.99
2017-09-25T06:24:45.522Z,99.99
2017-09-25T06:25:45.524Z,99.99
2017-09-25T06:26:45.524Z,99.99
2017-09-25T06:27:45.525Z,99.99
2017-09-25T06:28:45.526Z,99.99
2017-09-25T06:29:45.524Z,99.99
2017-09-25T06:30:45.524Z,99.99
2017-09-25T06:31:45.525Z,99.99
2017-09-25T06:32:45.527Z,99.99
2017-09-25T06:33:45.525Z,99.99
2017-09-25T06:34:45.526Z,99.99
2017-09-25T06:35:45.526Z,99.99
2017-09-25T06:36:45.527Z,99.99
2017-09-25T06:37:45.529Z,99.99
2017-09-25T06:38:45.528Z,99.99
2017-09-25T06:39:45.530Z,99.99
2017-09-25T06:40:45.529Z,99.99
2017-09-25T06:41:45.531Z,99.99
2017-09-25T06:42:45.530Z,99.99
2017-09-25T06:43:45.530Z,99.99
2017-09-25T06:44:45.531Z,99.99
2017-09-25T06:45:45.531Z,99.99
2017-09-25T06:46:45.532Z,99.99
2017-09-25T06:47:45.534Z,99.99
2017-09-25T06:48:45.535Z,99.99
2017-09-25T06:49:45.533Z,99.99
2017-09-25T06:50:45.534Z,99.90
2017-09-25T06:51:45.534Z,99.99
2017-09-25T06:52:45.535Z,99.76
2017-09-25T06:53:45.536Z,99.99
2017-09-25T06:54:45.537Z,99.57
2017-09-25T06:55:45.537Z,99.99
2017-09-25T06:56:45.537Z,99.38
2017-09-25T06:57:45.538Z,99.29
2017-09-25T06:58:45.540Z,98.61
2017-09-25T06:59:45.540Z,98.57
2017-09-25T07:00:45.542Z,97.52
2017-09-25T07:01:45.543Z,96.94
2017-09-25T07:02:45.543Z,96.94
2017-09-25T07:03:45.544Z,97.80
2017-09-25T07:04:45.545Z,96.94
2017-09-25T07:05:45.547Z,96.89
2017-09-25T07:06:45.552Z,97.13
2017-09-25T07:07:45.548Z,97.42
2017-09-25T07:08:45.549Z,97.23
2017-09-25T07:09:45.551Z,97.23
2017-09-25T07:10:45.553Z,97.33
2017-09-25T07:11:45.556Z,96.66
2017-09-25T07:12:45.553Z,95.75
2017-09-25T07:13:45.564Z,95.07
2017-09-25T07:14:45.559Z,94.50
2017-09-25T07:15:45.563Z,95.27
2017-09-25T07:16:45.561Z,95.36
2017-09-25T07:17:45.564Z,95.56
2017-09-25T07:18:45.565Z,95.27
2017-09-25T07:19:45.569Z,95.46
2017-09-25T07:20:45.568Z,94.65
2017-09-25T07:21:45.575Z,95.07
2017-09-25T07:22:45.602Z,95.27
2017-09-25T07:23:45.575Z,95.17
2017-09-25T07:24:45.577Z,95.27
2017-09-25T07:25:45.579Z,94.89
2017-09-25T07:26:45.580Z,95.22
2017-09-25T07:27:45.582Z,95.12
2017-09-25T07:28:45.583Z,94.93
2017-09-25T07:29:45.586Z,95.22
2017-09-25T07:30:45.588Z,94.36
2017-09-25T07:31:45.591Z,94.45
2017-09-25T07:32:45.591Z,94.45
2017-09-25T07:33:45.594Z,94.45
2017-09-25T07:34:45.595Z,94.36
2017-09-25T07:35:45.597Z,94.65
2017-09-25T07:36:45.598Z,94.36
2017-09-25T07:37:45.601Z,94.65
2017-09-25T07:38:45.602Z,94.50
2017-09-25T07:39:45.605Z,94.50
2017-09-25T07:40:45.606Z,93.93
2017-09-25T07:41:45.609Z,93.16
2017-09-25T07:42:45.611Z,93.07
2017-09-25T07:43:45.612Z,92.78
2017-09-25T07:44:45.613Z,92.49
2017-09-25T07:45:45.617Z,92.78
2017-09-25T07:46:45.618Z,92.68
2017-09-25T07:47:45.621Z,92.21
2017-09-25T07:48:45.623Z,92.40
2017-09-25T07:49:45.624Z,92.21
2017-09-25T07:50:45.626Z,92.44
2017-09-25T07:51:45.630Z,91.58
2017-09-25T07:52:45.630Z,91.39
2017-09-25T07:53:45.633Z,90.62
2017-09-25T07:54:45.634Z,90.53
2017-09-25T07:55:45.638Z,90.53
2017-09-25T07:56:45.638Z,90.91
2017-09-25T07:57:45.641Z,91.05
2017-09-25T07:58:45.644Z,91.19
2017-09-25T07:59:45.646Z,90.72
2017-09-25T08:00:45.648Z,90.43
2017-09-25T08:01:45.650Z,89.86
2017-09-25T08:02:45.653Z,91.00
2017-09-25T08:03:45.656Z,91.49
2017-09-25T08:04:45.659Z,91.53
2017-09-25T08:05:45.658Z,92.06
2017-09-25T08:06:45.668Z,91.10
2017-09-25T08:07:45.666Z,91.29
2017-09-25T08:08:45.667Z,90.67
2017-09-25T08:09:45.669Z,91.25
2017-09-25T08:10:45.672Z,91.34
2017-09-25T08:11:45.674Z,91.77
2017-09-25T08:12:45.676Z,91.34
2017-09-25T08:13:45.682Z,91.58
2017-09-25T08:14:45.680Z,91.00
2017-09-25T08:15:45.684Z,90.33
2017-09-25T08:16:45.685Z,89.95
2017-09-25T08:17:45.688Z,89.51
2017-09-25T08:18:45.691Z,87.84
2017-09-25T08:19:45.693Z,86.40
2017-09-25T08:20:45.700Z,86.58
2017-09-25T08:21:45.697Z,86.88
2017-09-25T08:22:45.702Z,86.25
2017-09-25T08:23:45.703Z,85.05
2017-09-25T08:24:45.708Z,85.15
2017-09-25T08:25:45.709Z,86.74
2017-09-25T08:26:45.717Z,88.32
2017-09-25T08:27:45.715Z,88.70
2017-09-25T08:28:45.718Z,89.47
2017-09-25T08:29:45.720Z,89.28
2017-09-25T08:30:45.722Z,89.23
2017-09-25T08:31:45.725Z,89.13
2017-09-25T08:32:45.727Z,88.60
2017-09-25T08:33:45.734Z,87.41
2017-09-25T08:34:45.733Z,88.12
2017-09-25T08:35:45.738Z,87.74
2017-09-25T08:36:45.740Z,86.34
2017-09-25T08:37:45.743Z,84.77
2017-09-25T08:38:45.746Z,85.15
2017-09-25T08:39:45.747Z,85.34
2017-09-25T08:40:45.751Z,86.54
2017-09-25T08:41:45.754Z,87.31
2017-09-25T08:42:45.759Z,87.12
2017-09-25T08:43:45.760Z,86.68
2017-09-25T08:44:45.764Z,85.25
2017-09-25T08:45:45.771Z,84.95
2017-09-25T08:46:45.769Z,84.48
2017-09-25T08:47:45.772Z,84.28
2017-09-25T08:48:45.773Z,84.58
2017-09-25T08:49:45.778Z,84.86
2017-09-25T08:50:45.779Z,84.61
2017-09-25T08:51:45.784Z,82.89
2017-09-25T08:52:45.783Z,81.64
2017-09-25T08:53:45.788Z,82.70
2017-09-25T08:54:45.791Z,83.18
2017-09-25T08:55:45.797Z,83.65
2017-09-25T08:56:45.795Z,82.56
2017-09-25T08:57:45.797Z,82.79
2017-09-25T08:58:45.806Z,81.10
2017-09-25T08:59:45.804Z,80.22
2017-09-25T09:00:45.807Z,78.02
2017-09-25T09:01:45.810Z,78.69
2017-09-25T09:02:45.813Z,76.29
2017-09-25T09:03:45.817Z,76.98
2017-09-25T09:04:45.820Z,78.61
2017-09-25T09:05:45.825Z,79.67
2017-09-25T09:06:45.830Z,78.70
2017-09-25T09:07:45.833Z,79.57
2017-09-25T09:08:45.835Z,79.07
2017-09-25T09:09:45.839Z,76.00
2017-09-25T09:10:45.845Z,77.21
2017-09-25T09:11:45.848Z,78.32
2017-09-25T09:12:45.851Z,78.94
2017-09-25T09:13:45.858Z,78.94
2017-09-25T09:14:45.859Z,78.75
2017-09-25T09:15:45.864Z,77.94
2017-09-25T09:16:45.867Z,77.75
2017-09-25T09:17:45.871Z,78.61
2017-09-25T09:18:45.876Z,79.09
2017-09-25T09:19:45.881Z,79.38
2017-09-25T09:20:45.884Z,79.72
2017-09-25T09:21:45.887Z,79.91
2017-09-25T09:22:45.892Z,80.20
2017-09-25T09:23:45.896Z,80.87
2017-09-25T09:24:45.899Z,81.41
2017-09-25T09:25:45.903Z,81.22
2017-09-25T09:26:45.907Z,81.64
2017-09-25T09:27:45.911Z,81.60
2017-09-25T09:28:45.915Z,81.98
2017-09-25T09:29:45.920Z,82.85
2017-09-25T09:30:45.921Z,82.46
2017-09-25T09:31:45.926Z,81.98
2017-09-25T09:32:45.928Z,81.16
2017-09-25T09:33:45.931Z,82.21
2017-09-25T09:34:45.935Z,81.45
2017-09-25T09:35:45.938Z,80.34
2017-09-25T09:36:45.942Z,79.71
2017-09-25T09:37:45.944Z,79.13
2017-09-25T09:38:45.948Z,79.86
2017-09-25T09:39:45.953Z,80.43
2017-09-25T09:40:45.954Z,81.07
2017-09-25T09:41:45.957Z,81.54
2017-09-25T09:42:45.962Z,81.84
2017-09-25T09:43:45.965Z,81.49
2017-09-25T09:44:45.966Z,81.43
2017-09-25T09:45:45.970Z,77.86
2017-09-25T09:46:45.974Z,74.51
2017-09-25T09:47:45.977Z,72.08
2017-09-25T09:48:45.987Z,69.73
2017-09-25T09:49:45.984Z,71.50
2017-09-25T09:50:46.004Z,70.28
2017-09-25T09:51:45.994Z,71.76
2017-09-25T09:52:45.996Z,69.29
2017-09-25T09:53:46.002Z,71.08
2017-09-25T09:54:46.007Z,73.35
2017-09-25T09:55:46.012Z,73.73
2017-09-25T09:56:46.016Z,74.75
2017-09-25T09:57:46.022Z,76.25
2017-09-25T09:58:46.024Z,77.11
2017-09-25T09:59:46.031Z,76.00
2017-09-25T10:00:46.033Z,74.50
2017-09-25T10:01:46.039Z,73.07
2017-09-25T10:02:46.043Z,68.80
2017-09-25T10:03:46.050Z,66.97
2017-09-25T10:04:46.053Z,65.50
2017-09-25T10:05:46.059Z,63.12
2017-09-25T10:06:46.065Z,62.02
2017-09-25T10:07:46.071Z,60.41
2017-09-25T10:08:46.076Z,58.95
2017-09-25T10:09:46.082Z,58.31
2017-09-25T10:10:46.089Z,57.99
2017-09-25T10:11:46.098Z,58.21
2017-09-25T10:12:46.102Z,56.37
2017-09-25T10:13:46.108Z,56.22
2017-09-25T10:14:46.117Z,57.19
2017-09-25T10:15:46.124Z,55.99
2017-09-25T10:16:46.132Z,53.69
2017-09-25T10:17:46.140Z,53.63
2017-09-25T10:18:46.149Z,53.38
2017-09-25T10:19:46.156Z,54.27
2017-09-25T10:20:46.165Z,54.27
2017-09-25T10:21:46.172Z,55.09
2017-09-25T10:22:46.181Z,57.26
2017-09-25T10:23:46.196Z,58.75
2017-09-25T10:24:46.199Z,59.97
2017-09-25T10:25:46.209Z,60.93
2017-09-25T10:26:46.219Z,60.22
2017-09-25T10:27:46.229Z,61.19
2017-09-25T10:28:46.238Z,64.02
2017-09-25T10:29:46.246Z,66.58
2017-09-25T10:30:46.255Z,66.84
2017-09-25T10:31:46.267Z,68.19
2017-09-25T10:32:46.273Z,68.48
2017-09-25T10:33:46.282Z,68.96
2017-09-25T10:34:46.291Z,69.06
2017-09-25T10:35:46.299Z,69.40
2017-09-25T10:36:46.307Z,69.21
2017-09-25T10:37:46.316Z,69.09
2017-09-25T10:38:46.324Z,67.74
2017-09-25T10:39:46.331Z,66.71
2017-09-25T10:40:46.337Z,65.85
2017-09-25T10:41:46.345Z,65.85
2017-09-25T10:42:46.353Z,65.43
2017-09-25T10:43:46.360Z,67.61
2017-09-25T10:44:46.367Z,68.54
2017-09-25T10:45:46.374Z,68.63
2017-09-25T10:46:46.380Z,69.89
2017-09-25T10:47:46.388Z,68.73
2017-09-25T10:48:46.394Z,69.50
2017-09-25T10:49:46.399Z,69.31
2017-09-25T10:50:46.405Z,69.98
2017-09-25T10:51:46.413Z,69.50
2017-09-25T10:52:46.418Z,69.63
2017-09-25T10:53:46.424Z,69.15
2017-09-25T10:54:46.429Z,68.13
2017-09-25T10:55:46.436Z,67.65
2017-09-25T10:56:46.440Z,68.29
2017-09-25T10:57:46.449Z,69.24
2017-09-25T10:58:46.453Z,68.19
2017-09-25T10:59:46.459Z,67.83
2017-09-25T11:00:46.463Z,68.19
2017-09-25T11:01:46.469Z,69.09
2017-09-25T11:02:46.475Z,69.18
2017-09-25T11:03:46.480Z,67.74
2017-09-25T11:04:46.489Z,67.93
2017-09-25T11:05:46.490Z,67.80
2017-09-25T11:06:46.496Z,67.99
2017-09-25T11:07:46.505Z,67.99
2017-09-25T11:08:46.505Z,67.83
2017-09-25T11:09:46.511Z,67.16
2017-09-25T11:10:46.517Z,67.74
2017-09-25T11:11:46.521Z,66.39
2017-09-25T11:12:46.525Z,67.26
2017-09-25T11:13:46.531Z,67.45
2017-09-25T11:14:46.540Z,67.42
2017-09-25T11:15:46.542Z,67.99
2017-09-25T11:16:46.545Z,69.31
2017-09-25T11:17:46.555Z,70.65
2017-09-25T11:18:46.555Z,70.65
2017-09-25T11:19:46.561Z,70.75
2017-09-25T11:20:46.566Z,71.33
2017-09-25T11:21:46.573Z,71.42
2017-09-25T11:22:46.574Z,71.52
2017-09-25T11:23:46.580Z,71.61
2017-09-25T11:24:46.581Z,72.67
2017-09-25T11:25:46.588Z,72.96
2017-09-25T11:26:46.591Z,72.96
2017-09-25T11:27:46.596Z,73.25
2017-09-25T11:28:46.601Z,73.15
2017-09-25T11:29:46.606Z,74.17
2017-09-25T11:30:46.609Z,74.55
2017-09-25T11:31:46.614Z,74.17
2017-09-25T11:32:46.617Z,73.63
2017-09-25T11:33:46.622Z,73.83
2017-09-25T11:34:46.627Z,72.96
2017-09-25T11:35:46.631Z,72.67
2017-09-25T11:36:46.636Z,72.96
2017-09-25T11:37:46.639Z,72.77
2017-09-25T11:38:46.643Z,71.61
2017-09-25T11:39:46.648Z,71.71
2017-09-25T11:40:46.652Z,71.71
2017-09-25T11:41:46.656Z,71.55
2017-09-25T11:42:46.661Z,70.72
2017-09-25T11:43:46.665Z,69.76
2017-09-25T11:44:46.669Z,71.11
2017-09-25T11:45:46.672Z,70.05
2017-09-25T11:46:46.677Z,69.38
2017-09-25T11:47:46.681Z,68.16
2017-09-25T11:48:46.686Z,68.93
2017-09-25T11:49:46.690Z,69.31
2017-09-25T11:50:46.694Z,69.12
2017-09-25T11:51:46.700Z,68.90
2017-09-25T11:52:46.702Z,68.32
2017-09-25T11:53:46.708Z,68.32
2017-09-25T11:54:46.711Z,69.15
2017-09-25T11:55:46.716Z,69.57
2017-09-25T11:56:46.720Z,69.53
2017-09-25T11:57:46.725Z,69.53
2017-09-25T11:58:46.729Z,70.01
2017-09-25T11:59:46.735Z,70.59
2017-09-25T12:00:46.736Z,70.01
2017-09-25T12:01:46.742Z,70.11
2017-09-25T12:02:46.748Z,70.98
2017-09-25T12:03:46.751Z,71.14
2017-09-25T12:04:46.754Z,71.42
2017-09-25T12:05:46.763Z,70.65
2017-09-25T12:06:46.763Z,71.23
2017-09-25T12:07:46.770Z,71.04
2017-09-25T12:08:46.772Z,71.08
2017-09-25T12:09:46.777Z,70.50
2017-09-25T12:10:46.780Z,70.40
2017-09-25T12:11:46.785Z,70.05
2017-09-25T12:12:46.788Z,68.90
2017-09-25T12:13:46.793Z,68.99
2017-09-25T12:14:46.795Z,68.74
2017-09-25T12:15:46.801Z,68.74
2017-09-25T12:16:46.805Z,68.03
2017-09-25T12:17:46.810Z,68.80
2017-09-25T12:18:46.813Z,69.09
2017-09-25T12:19:46.818Z,68.54
2017-09-25T12:20:46.821Z,68.35
2017-09-25T12:21:46.826Z,67.68
2017-09-25T12:22:46.832Z,67.29
2017-09-25T12:23:46.835Z,66.91
2017-09-25T12:24:46.841Z,67.97
2017-09-25T12:25:46.843Z,67.10
2017-09-25T12:26:46.848Z,67.97
2017-09-25T12:27:46.853Z,68.06
2017-09-25T12:28:46.856Z,67.97
2017-09-25T12:29:46.860Z,67.29
2017-09-25T12:30:46.865Z,67.10
2017-09-25T12:31:46.869Z,66.27
2017-09-25T12:32:46.874Z,66.17
2017-09-25T12:33:46.881Z,67.29
2017-09-25T12:34:46.883Z,67.83
2017-09-25T12:35:46.890Z,67.87
2017-09-25T12:36:46.891Z,67.87
2017-09-25T12:37:46.896Z,67.93
2017-09-25T12:38:46.902Z,67.45
2017-09-25T12:39:46.906Z,69.18
2017-09-25T12:40:46.910Z,69.09
2017-09-25T12:41:46.915Z,68.51
2017-09-25T12:42:46.919Z,68.51
2017-09-25T12:43:46.923Z,67.93
2017-09-25T12:44:46.929Z,68.06
2017-09-25T12:45:46.933Z,68.64
2017-09-25T12:46:46.939Z,68.44
2017-09-25T12:47:46.942Z,68.26
2017-09-25T12:48:46.948Z,68.93
2017-09-25T12:49:46.949Z,69.22
2017-09-25T12:50:46.955Z,69.51
2017-09-25T12:51:46.960Z,69.60
2017-09-25T12:52:46.964Z,70.62